PDT,Max TemperatureF,Mean TemperatureF,Min TemperatureF,Max Dew PointF,MeanDew PointF,Min DewpointF,Max Humidity, Mean Humidity, Min Humidity, Max Sea Level PressureIn, Mean Sea Level PressureIn, Min Sea Level PressureIn, Max VisibilityMiles, Mean VisibilityMiles, Min VisibilityMiles, Max Wind SpeedMPH, Mean Wind SpeedMPH, Max Gust SpeedMPH,PrecipitationIn, CloudCover, Events, WindDirDegrees
2013-4-1,70,54,40,40,37,34,80,54,28,29.99,29.96,29.94,10,10,10,10,6,,0.00,0,,345
2013-4-2,63,52,42,44,42,38,100,78,41,30.09,30.04,29.99,10,10,10,17,10,24,0.00,2,,169
2013-4-3,62,50,39,43,39,35,100,74,38,30.12,30.07,30.01,10,10,10,16,9,,0.00,1,,163
2013-4-4,55,48,41,49,44,36,100,87,62,30.01,29.82,29.72,10,10,6,20,8,24,0.11,7,Rain,128
2013-4-5,58,51,43,46,43,39,100,77,51,29.88,29.82,29.79,10,10,10,28,18,36,0.03,5,Rain,186
2013-4-6,53,48,42,45,38,31,100,71,44,29.87,29.82,29.78,10,10,9,26,14,36,0.06,6,Rain,179
2013-4-7,50,42,35,43,38,32,100,87,57,29.81,29.62,29.52,10,9,3,26,12,39,0.32,7,Rain,139
2013-4-8,46,39,32,36,33,27,100,83,56,30.26,29.97,29.74,10,10,10,10,7,,0.00,7,,90
2013-4-9,53,41,30,36,30,25,87,67,46,30.36,30.29,30.22,10,10,10,12,5,,0.00,3,,97
2013-4-10,59,49,36,48,38,31,89,71,47,30.20,29.97,29.81,10,10,10,32,13,40,0.07,6,Rain,177
2013-4-11,52,42,32,36,31,27,100,74,38,30.13,30.07,30.01,10,10,10,20,12,26,0.00,1,,189
2013-4-12,51,40,29,39,34,27,100,84,46,30.11,29.80,29.56,10,10,8,22,9,34,0.07,6,Rain,162
2013-4-13,49,39,29,37,27,17,100,66,31,29.84,29.65,29.53,10,10,10,29,18,34,0.00,4,Snow,220
2013-4-14,43,35,28,32,28,23,100,78,54,29.96,29.88,29.79,10,10,10,16,7,,0.00,5,Rain,143
2013-4-15,46,38,31,28,19,15,87,46,34,30.14,29.97,29.91,10,10,10,20,13,26,0.00,4,,17
2013-4-16,45,34,27,18,14,12,56,39,29,30.38,30.25,30.15,10,10,10,21,14,28,0.00,3,,9
2013-4-17,51,38,24,21,17,12,68,46,24,30.45,30.35,30.27,10,10,10,15,5,23,0.00,0,,284
2013-4-18,54,40,27,37,30,18,78,60,46,30.35,30.27,30.14,10,10,10,15,8,22,0.00,4,Rain,170
2013-4-19,55,48,42,46,43,37,100,86,63,30.15,30.00,29.92,10,10,7,20,14,26,0.14,7,Rain,189
2013-4-20,59,47,35,39,35,30,100,72,37,30.09,30.03,29.98,10,10,10,30,14,37,0.00,3,,196
2013-4-21,50,41,33,39,34,28,95,76,54,30.30,30.10,30.04,10,10,9,18,8,24,0.01,6,Rain-Snow,283
2013-4-22,51,40,30,32,22,17,93,53,27,30.51,30.40,30.26,10,10,10,15,9,21,0.00,1,Rain,57
2013-4-23,56,42,29,28,22,16,65,50,27,30.38,30.28,30.20,10,10,10,12,7,,0.00,2,,210
2013-4-24,61,46,32,32,28,25,81,58,31,30.30,30.20,29.96,10,10,10,17,6,28,0.00,0,,191
2013-4-25,67,52,35,35,32,28,75,51,26,30.05,29.97,29.92,10,10,10,16,7,22,0.00,0,,163
2013-4-26,71,56,41,44,37,30,76,50,26,30.17,30.12,30.05,10,10,10,18,9,25,0.00,0,,186
2013-4-27,65,56,47,38,34,30,66,47,28,30.09,30.04,29.96,10,10,10,28,15,37,0.00,3,,187
2013-4-28,59,49,40,37,34,28,88,61,32,30.08,30.00,29.83,10,10,10,26,13,34,0.00,5,,192
2013-4-29,54,43,30,36,23,12,77,47,20,29.98,29.82,29.72,10,10,10,31,16,39,0.00,4,,231
2013-4-30,48,36,24,28,21,16,74,53,33,30.35,30.11,29.95,10,10,10,21,8,29,0.00,3,Rain,251